sensor_id;sensor_type;location;lat;lon;timestamp;pressure;altitude;pressure_sealevel;temperature;humidity
13011;BME280;6786;57.632;11.962;2023-04-01T00:01:06;99966.06;;;18.38;36.97
13011;BME280;6786;57.632;11.962;2023-04-01T00:03:38;99983.53;;;18.42;37.14
13011;BME280;6786;57.632;11.962;2023-04-01T00:06:08;99883.59;;;17.79;37.06
13011;BME280;6786;57.632;11.962;2023-04-01T00:08:37;99981.81;;;18.41;37.12
13011;BME280;6786;57.632;11.962;2023-04-01T00:11:05;99988.88;;;18.42;37.00
13011;BME280;6786;57.632;11.962;2023-04-01T00:13:33;99997.88;;;18.41;36.96
13011;BME280;6786;57.632;11.962;2023-04-01T00:16:02;99988.88;;;18.42;37.09
13011;BME280;6786;57.632;11.962;2023-04-01T00:18:47;99988.16;;;18.40;36.89
13011;BME280;6786;57.632;11.962;2023-04-01T00:21:15;99996.19;;;18.40;36.93
13011;BME280;6786;57.632;11.962;2023-04-01T00:23:43;99891.25;;;17.65;37.03
13011;BME280;6786;57.632;11.962;2023-04-01T00:26:11;99972.84;;;18.23;36.98
13011;BME280;6786;57.632;11.962;2023-04-01T00:28:40;99989.16;;;18.39;37.06
13011;BME280;6786;57.632;11.962;2023-04-01T00:31:09;99996.75;;;18.34;36.94
13011;BME280;6786;57.632;11.962;2023-04-01T00:33:38;100004.06;;;18.41;36.86
13011;BME280;6786;57.632;11.962;2023-04-01T00:36:10;100014.63;;;18.43;36.94
13011;BME280;6786;57.632;11.962;2023-04-01T00:38:38;99983.56;;;18.23;36.84
13011;BME280;6786;57.632;11.962;2023-04-01T00:41:07;100017.59;;;18.40;36.90
13011;BME280;6786;57.632;11.962;2023-04-01T00:43:35;100019.41;;;18.39;36.89
13011;BME280;6786;57.632;11.962;2023-04-01T00:46:03;100011.13;;;18.33;36.88
13011;BME280;6786;57.632;11.962;2023-04-01T00:48:34;100023.81;;;18.40;36.85
13011;BME280;6786;57.632;11.962;2023-04-01T00:51:06;99923.41;;;17.73;36.95
13011;BME280;6786;57.632;11.962;2023-04-01T00:53:40;100029.97;;;18.41;36.85
13011;BME280;6786;57.632;11.962;2023-04-01T00:56:11;100033.94;;;18.37;36.91
13011;BME280;6786;57.632;11.962;2023-04-01T00:58:44;99929.75;;;17.72;36.82
13011;BME280;6786;57.632;11.962;2023-04-01T01:01:14;100040.66;;;18.41;36.78
13011;BME280;6786;57.632;11.962;2023-04-01T01:03:43;100049.56;;;18.41;36.76
13011;BME280;6786;57.632;11.962;2023-04-01T01:06:17;100052.38;;;18.40;36.74
13011;BME280;6786;57.632;11.962;2023-04-01T01:09:07;100031.53;;;18.34;36.54
13011;BME280;6786;57.632;11.962;2023-04-01T01:11:42;100041.22;;;18.35;36.77
13011;BME280;6786;57.632;11.962;2023-04-01T01:14:20;99974.69;;;17.86;36.52
13011;BME280;6786;57.632;11.962;2023-04-01T01:16:54;100064.06;;;18.39;36.78
13011;BME280;6786;57.632;11.962;2023-04-01T01:19:46;100068.56;;;18.38;36.40
13011;BME280;6786;57.632;11.962;2023-04-01T01:22:29;100067.72;;;18.38;36.63
13011;BME280;6786;57.632;11.962;2023-04-01T01:25:28;100051.13;;;18.25;36.35
13011;BME280;6786;57.632;11.962;2023-04-01T01:28:06;100071.41;;;18.37;36.64
13011;BME280;6786;57.632;11.962;2023-04-01T01:30:46;100018.97;;;17.98;36.67
13011;BME280;6786;57.632;11.962;2023-04-01T01:33:30;100078.41;;;18.38;36.40
13011;BME280;6786;57.632;11.962;2023-04-01T01:36:02;100079.41;;;18.37;36.63
13011;BME280;6786;57.632;11.962;2023-04-01T01:38:34;100082.09;;;18.37;36.66
13011;BME280;6786;57.632;11.962;2023-04-01T01:41:04;100084.78;;;18.37;36.70
13011;BME280;6786;57.632;11.962;2023-04-01T01:43:37;100089.13;;;18.38;36.67
13011;BME280;6786;57.632;11.962;2023-04-01T01:46:09;100094.47;;;18.38;36.64
13011;BME280;6786;57.632;11.962;2023-04-01T01:48:40;100082.09;;;18.37;36.60
13011;BME280;6786;57.632;11.962;2023-04-01T01:51:11;100090.13;;;18.37;36.54
13011;BME280;6786;57.632;11.962;2023-04-01T01:53:40;100003.94;;;17.87;36.59
13011;BME280;6786;57.632;11.962;2023-04-01T01:56:12;100053.16;;;18.13;36.54
13011;BME280;6786;57.632;11.962;2023-04-01T01:58:43;100043.97;;;18.16;36.56
13011;BME280;6786;57.632;11.962;2023-04-01T02:01:15;100090.81;;;18.39;36.43
13011;BME280;6786;57.632;11.962;2023-04-01T02:03:45;100095.31;;;18.38;36.49
13011;BME280;6786;57.632;11.962;2023-04-01T02:06:21;100082.34;;;18.34;36.31
13011;BME280;6786;57.632;11.962;2023-04-01T02:08:53;100007.06;;;17.83;36.70
13011;BME280;6786;57.632;11.962;2023-04-01T02:11:27;100078.28;;;18.30;36.53
13011;BME280;6786;57.632;11.962;2023-04-01T02:13:58;100090.81;;;18.39;36.45
13011;BME280;6786;57.632;11.962;2023-04-01T02:16:33;100017.47;;;17.86;36.49
13011;BME280;6786;57.632;11.962;2023-04-01T02:19:04;100069.75;;;18.17;36.48
13011;BME280;6786;57.632;11.962;2023-04-01T02:21:36;100101.22;;;18.32;36.41
13011;BME280;6786;57.632;11.962;2023-04-01T02:24:09;100112.22;;;18.39;36.41
13011;BME280;6786;57.632;11.962;2023-04-01T02:26:38;100114.91;;;18.39;36.41
13011;BME280;6786;57.632;11.962;2023-04-01T02:29:07;100126.56;;;18.38;36.39
13011;BME280;6786;57.632;11.962;2023-04-01T02:31:37;100075.97;;;18.08;36.49
13011;BME280;6786;57.632;11.962;2023-04-01T02:34:05;100124.91;;;18.37;36.30
13011;BME280;6786;57.632;11.962;2023-04-01T02:36:36;100035.78;;;17.81;36.28
13011;BME280;6786;57.632;11.962;2023-04-01T02:39:05;100118.13;;;18.33;36.21
13011;BME280;6786;57.632;11.962;2023-04-01T02:41:38;100135.31;;;18.40;36.14
13011;BME280;6786;57.632;11.962;2023-04-01T02:44:07;100132.78;;;18.38;36.38
13011;BME280;6786;57.632;11.962;2023-04-01T02:46:35;100108.72;;;18.19;36.13
13011;BME280;6786;57.632;11.962;2023-04-01T02:49:03;100046.72;;;17.87;36.31
13011;BME280;6786;57.632;11.962;2023-04-01T02:51:32;100120.38;;;18.28;36.31
13011;BME280;6786;57.632;11.962;2023-04-01T02:54:02;100142.34;;;18.41;36.19
13011;BME280;6786;57.632;11.962;2023-04-01T02:56:30;100149.41;;;18.42;36.34
13011;BME280;6786;57.632;11.962;2023-04-01T02:58:58;100134.19;;;18.33;36.26
13011;BME280;6786;57.632;11.962;2023-04-01T03:01:26;100145.16;;;18.39;36.08
13011;BME280;6786;57.632;11.962;2023-04-01T03:03:55;100151.38;;;18.40;36.20
13011;BME280;6786;57.632;11.962;2023-04-01T03:06:23;100151.38;;;18.40;36.06
13011;BME280;6786;57.632;11.962;2023-04-01T03:08:51;100063.91;;;17.85;36.23
13011;BME280;6786;57.632;11.962;2023-04-01T03:11:21;100139.53;;;18.33;36.18
13011;BME280;6786;57.632;11.962;2023-04-01T03:13:49;100045.66;;;17.71;36.23
13011;BME280;6786;57.632;11.962;2023-04-01T03:16:17;100163.06;;;18.39;36.07
13011;BME280;6786;57.632;11.962;2023-04-01T03:18:45;100068.28;;;17.76;36.16
13011;BME280;6786;57.632;11.962;2023-04-01T03:21:17;100172.75;;;18.40;36.16
13011;BME280;6786;57.632;11.962;2023-04-01T03:23:46;100173.75;;;18.39;36.14
13011;BME280;6786;57.632;11.962;2023-04-01T03:26:14;100178.13;;;18.40;36.06
13011;BME280;6786;57.632;11.962;2023-04-01T03:28:44;100195.16;;;18.39;36.10
13011;BME280;6786;57.632;11.962;2023-04-01T03:31:12;100176.44;;;18.39;36.02
13011;BME280;6786;57.632;11.962;2023-04-01T03:33:42;100171.91;;;18.39;36.20
13011;BME280;6786;57.632;11.962;2023-04-01T03:36:11;100161.78;;;18.24;36.02
13011;BME280;6786;57.632;11.962;2023-04-01T03:38:40;100180.94;;;18.38;36.01
13011;BME280;6786;57.632;11.962;2023-04-01T03:41:12;100108.34;;;17.86;35.91
13011;BME280;6786;57.632;11.962;2023-04-01T03:43:40;100111.72;;;17.88;36.03
13011;BME280;6786;57.632;11.962;2023-04-01T03:46:10;100189.97;;;18.37;35.87
13011;BME280;6786;57.632;11.962;2023-04-01T03:48:38;100190.78;;;18.38;35.97
13011;BME280;6786;57.632;11.962;2023-04-01T03:51:07;100196.13;;;18.38;35.87
13011;BME280;6786;57.632;11.962;2023-04-01T03:53:36;100196.13;;;18.38;35.97
13011;BME280;6786;57.632;11.962;2023-04-01T03:56:05;100195.31;;;18.37;35.96
13011;BME280;6786;57.632;11.962;2023-04-01T03:58:33;100206.84;;;18.38;35.87
13011;BME280;6786;57.632;11.962;2023-04-01T04:01:01;100174.44;;;18.22;35.93
13011;BME280;6786;57.632;11.962;2023-04-01T04:03:31;100205.16;;;18.37;35.97
13011;BME280;6786;57.632;11.962;2023-04-01T04:06:00;100206.84;;;18.38;35.80
13011;BME280;6786;57.632;11.962;2023-04-01T04:08:28;100132.56;;;17.94;35.95
13011;BME280;6786;57.632;11.962;2023-04-01T04:10:56;100212.19;;;18.38;35.95
13011;BME280;6786;57.632;11.962;2023-04-01T04:13:24;100207.38;;;18.32;35.86
13011;BME280;6786;57.632;11.962;2023-04-01T04:15:53;100202.31;;;18.29;35.77
13011;BME280;6786;57.632;11.962;2023-04-01T04:18:21;100215.84;;;18.37;35.92
13011;BME280;6786;57.632;11.962;2023-04-01T04:20:51;100222.06;;;18.37;35.68
13011;BME280;6786;57.632;11.962;2023-04-01T04:23:19;100221.22;;;18.37;35.91
13011;BME280;6786;57.632;11.962;2023-04-01T04:25:55;100216.72;;;18.37;35.64
13011;BME280;6786;57.632;11.962;2023-04-01T04:28:24;100094.88;;;17.58;35.61
13011;BME280;6786;57.632;11.962;2023-04-01T04:30:53;100223.88;;;18.37;35.83
13011;BME280;6786;57.632;11.962;2023-04-01T04:33:21;100231.91;;;18.37;35.82
13011;BME280;6786;57.632;11.962;2023-04-01T04:35:51;100225.41;;;18.30;35.68
13011;BME280;6786;57.632;11.962;2023-04-01T04:38:19;100229.06;;;18.29;35.73
13011;BME280;6786;57.632;11.962;2023-04-01T04:40:47;100238.94;;;18.38;35.82
13011;BME280;6786;57.632;11.962;2023-04-01T04:43:16;100244.28;;;18.38;35.75
13011;BME280;6786;57.632;11.962;2023-04-01T04:45:44;100237.25;;;18.37;35.60
13011;BME280;6786;57.632;11.962;2023-04-01T04:48:14;100244.53;;;18.35;35.78
13011;BME280;6786;57.632;11.962;2023-04-01T04:50:46;100248.06;;;18.35;35.72
13011;BME280;6786;57.632;11.962;2023-04-01T04:53:18;100255.25;;;18.35;35.55
13011;BME280;6786;57.632;11.962;2023-04-01T04:55:47;100255.25;;;18.35;35.57
13011;BME280;6786;57.632;11.962;2023-04-01T04:58:16;100167.44;;;17.83;35.54
13011;BME280;6786;57.632;11.962;2023-04-01T05:00:45;100256.94;;;18.36;35.58
13011;BME280;6786;57.632;11.962;2023-04-01T05:03:14;100239.50;;;18.13;35.73
13011;BME280;6786;57.632;11.962;2023-04-01T05:05:49;100190.25;;;17.87;35.48
13011;BME280;6786;57.632;11.962;2023-04-01T05:08:19;100278.34;;;18.36;35.55
13011;BME280;6786;57.632;11.962;2023-04-01T05:10:47;100283.72;;;18.36;35.54
13011;BME280;6786;57.632;11.962;2023-04-01T05:13:15;100282.00;;;18.35;35.49
13011;BME280;6786;57.632;11.962;2023-04-01T05:15:43;100267.66;;;18.26;35.42
13011;BME280;6786;57.632;11.962;2023-04-01T05:18:11;100294.41;;;18.36;35.55
13011;BME280;6786;57.632;11.962;2023-04-01T05:20:46;100269.63;;;18.15;35.47
13011;BME280;6786;57.632;11.962;2023-04-01T05:23:14;100303.41;;;18.35;35.54
13011;BME280;6786;57.632;11.962;2023-04-01T05:25:43;100303.41;;;18.35;35.39
13011;BME280;6786;57.632;11.962;2023-04-01T05:28:12;100310.47;;;18.36;35.44
13011;BME280;6786;57.632;11.962;2023-04-01T05:30:41;100313.13;;;18.36;35.49
13011;BME280;6786;57.632;11.962;2023-04-01T05:33:10;100316.78;;;18.35;35.60
13011;BME280;6786;57.632;11.962;2023-04-01T05:35:38;100314.38;;;18.32;35.48
13011;BME280;6786;57.632;11.962;2023-04-01T05:38:07;100324.13;;;18.33;35.56
13011;BME280;6786;57.632;11.962;2023-04-01T05:40:35;100177.00;;;17.56;35.33
13011;BME280;6786;57.632;11.962;2023-04-01T05:43:04;100317.53;;;18.37;35.50
13011;BME280;6786;57.632;11.962;2023-04-01T05:45:32;100326.50;;;18.36;35.36
13011;BME280;6786;57.632;11.962;2023-04-01T05:48:01;100342.56;;;18.36;35.37
13011;BME280;6786;57.632;11.962;2023-04-01T05:50:29;100342.56;;;18.36;35.27
13011;BME280;6786;57.632;11.962;2023-04-01T05:52:58;100344.28;;;18.37;35.40
13011;BME280;6786;57.632;11.962;2023-04-01T05:55:26;100252.41;;;17.79;35.29
13011;BME280;6786;57.632;11.962;2023-04-01T05:57:54;100354.97;;;18.37;35.36
13011;BME280;6786;57.632;11.962;2023-04-01T06:00:23;100355.84;;;18.37;35.25
13011;BME280;6786;57.632;11.962;2023-04-01T06:02:52;100360.31;;;18.37;35.37
13011;BME280;6786;57.632;11.962;2023-04-01T06:05:21;100366.53;;;18.37;35.37
13011;BME280;6786;57.632;11.962;2023-04-01T06:07:51;100361.19;;;18.37;35.30
13011;BME280;6786;57.632;11.962;2023-04-01T06:10:35;100358.19;;;18.31;35.09
13011;BME280;6786;57.632;11.962;2023-04-01T06:13:11;100349.03;;;18.24;35.37
13011;BME280;6786;57.632;11.962;2023-04-01T06:15:48;100360.31;;;18.37;35.09
13011;BME280;6786;57.632;11.962;2023-04-01T06:18:38;100388.75;;;18.38;34.93
13011;BME280;6786;57.632;11.962;2023-04-01T06:21:24;100382.59;;;18.37;35.03
13011;BME280;6786;57.632;11.962;2023-04-01T06:24:02;100372.41;;;18.31;35.24
13011;BME280;6786;57.632;11.962;2023-04-01T06:26:43;100381.72;;;18.37;35.30
13011;BME280;6786;57.632;11.962;2023-04-01T06:32:49;100400.56;;;18.35;34.74
13011;BME280;6786;57.632;11.962;2023-04-01T06:35:29;100397.16;;;18.33;35.05
13011;BME280;6786;57.632;11.962;2023-04-01T06:44:19;100381.94;;;18.15;34.95
13011;BME280;6786;57.632;11.962;2023-04-01T06:46:57;100412.41;;;18.33;35.40
13011;BME280;6786;57.632;11.962;2023-04-01T06:49:41;100319.66;;;17.75;34.81
13011;BME280;6786;57.632;11.962;2023-04-01T06:52:18;100280.75;;;17.51;35.20
13011;BME280;6786;57.632;11.962;2023-04-01T06:54:51;100315.44;;;17.72;35.11
13011;BME280;6786;57.632;11.962;2023-04-01T06:57:24;100291.88;;;17.56;35.25
13011;BME280;6786;57.632;11.962;2023-04-01T06:59:57;100426.47;;;18.35;35.29
13011;BME280;6786;57.632;11.962;2023-04-01T07:02:33;100431.81;;;18.35;35.06
13011;BME280;6786;57.632;11.962;2023-04-01T07:05:11;100446.19;;;18.34;35.18
13011;BME280;6786;57.632;11.962;2023-04-01T07:07:42;100431.94;;;18.33;35.12
13011;BME280;6786;57.632;11.962;2023-04-01T07:10:14;100447.88;;;18.35;35.30
13011;BME280;6786;57.632;11.962;2023-04-01T07:12:48;100433.81;;;18.33;35.26
13011;BME280;6786;57.632;11.962;2023-04-01T07:15:20;100439.16;;;18.33;35.11
13011;BME280;6786;57.632;11.962;2023-04-01T07:17:55;100388.94;;;17.97;35.08
13011;BME280;6786;57.632;11.962;2023-04-01T07:20:28;100427.28;;;18.26;35.10
13011;BME280;6786;57.632;11.962;2023-04-01T07:22:59;100354.53;;;17.83;35.27
13011;BME280;6786;57.632;11.962;2023-04-01T07:25:29;100448.72;;;18.35;35.04
13011;BME280;6786;57.632;11.962;2023-04-01T07:28:04;100447.63;;;18.38;35.24
13011;BME280;6786;57.632;11.962;2023-04-01T07:30:51;100449.06;;;18.42;34.63
13011;BME280;6786;57.632;11.962;2023-04-01T07:33:24;100364.69;;;17.89;35.08
13011;BME280;6786;57.632;11.962;2023-04-01T07:35:59;100456.22;;;18.41;34.91
13011;BME280;6786;57.632;11.962;2023-04-01T07:38:35;100463.13;;;18.44;35.05
13011;BME280;6786;57.632;11.962;2023-04-01T07:41:12;100470.19;;;18.45;34.92
13011;BME280;6786;57.632;11.962;2023-04-01T07:43:53;100388.09;;;17.96;34.75
13011;BME280;6786;57.632;11.962;2023-04-01T07:46:40;100472.59;;;18.48;34.61
13011;BME280;6786;57.632;11.962;2023-04-01T07:49:15;100485.97;;;18.48;34.86
13011;BME280;6786;57.632;11.962;2023-04-01T07:51:52;100478.38;;;18.43;34.69
13011;BME280;6786;57.632;11.962;2023-04-01T07:54:29;100493.00;;;18.49;34.82
13011;BME280;6786;57.632;11.962;2023-04-01T07:57:02;100484.25;;;18.47;34.90
13011;BME280;6786;57.632;11.962;2023-04-01T07:59:40;100484.25;;;18.47;34.85
13011;BME280;6786;57.632;11.962;2023-04-01T08:02:23;100488.66;;;18.48;34.66
13011;BME280;6786;57.632;11.962;2023-04-01T08:05:00;100488.22;;;18.43;34.92
13011;BME280;6786;57.632;11.962;2023-04-01T08:07:40;100489.22;;;18.42;34.86
13011;BME280;6786;57.632;11.962;2023-04-01T08:10:14;100496.38;;;18.41;34.97
13011;BME280;6786;57.632;11.962;2023-04-01T08:12:54;100491.66;;;18.34;34.79
13011;BME280;6786;57.632;11.962;2023-04-01T08:15:29;100480.25;;;18.32;34.88
13011;BME280;6786;57.632;11.962;2023-04-01T08:18:08;100506.34;;;18.39;34.90
13011;BME280;6786;57.632;11.962;2023-04-01T08:20:43;100500.88;;;18.41;34.88
13011;BME280;6786;57.632;11.962;2023-04-01T08:23:16;100495.50;;;18.41;34.81
13011;BME280;6786;57.632;11.962;2023-04-01T08:25:50;100504.53;;;18.40;34.75
13011;BME280;6786;57.632;11.962;2023-04-01T08:28:24;100515.25;;;18.40;34.89
13011;BME280;6786;57.632;11.962;2023-04-01T08:30:58;100531.56;;;18.37;34.93
13011;BME280;6786;57.632;11.962;2023-04-01T08:33:29;100511.56;;;18.41;34.90
13011;BME280;6786;57.632;11.962;2023-04-01T08:36:03;100524.00;;;18.42;34.94
13011;BME280;6786;57.632;11.962;2023-04-01T08:38:38;100508.91;;;18.41;34.71
13011;BME280;6786;57.632;11.962;2023-04-01T08:41:36;100523.41;;;18.38;34.44
13011;BME280;6786;57.632;11.962;2023-04-01T08:44:23;100519.16;;;18.36;34.52
13011;BME280;6786;57.632;11.962;2023-04-01T08:47:16;100515.59;;;18.35;34.44
13011;BME280;6786;57.632;11.962;2023-04-01T08:53:00;100419.50;;;17.74;34.81
13011;BME280;6786;57.632;11.962;2023-04-01T08:55:38;100524.50;;;18.36;34.64
13011;BME280;6786;57.632;11.962;2023-04-01T08:58:37;100535.19;;;18.36;34.23
13011;BME280;6786;57.632;11.962;2023-04-01T09:01:17;100529.84;;;18.36;34.77
13011;BME280;6786;57.632;11.962;2023-04-01T09:04:03;100528.13;;;18.35;34.68
13011;BME280;6786;57.632;11.962;2023-04-01T09:06:51;100417.81;;;17.73;34.51
13011;BME280;6786;57.632;11.962;2023-04-01T09:09:50;100343.16;;;17.20;34.20
13011;BME280;6786;57.632;11.962;2023-04-01T09:12:38;100438.09;;;17.75;34.55
13011;BME280;6786;57.632;11.962;2023-04-01T09:15:34;100535.19;;;18.36;34.38
13011;BME280;6786;57.632;11.962;2023-04-01T09:18:19;100484.38;;;18.06;34.38
13011;BME280;6786;57.632;11.962;2023-04-01T09:24:24;100517.44;;;18.35;34.23
13011;BME280;6786;57.632;11.962;2023-04-01T09:27:04;100492.31;;;18.17;34.54
13011;BME280;6786;57.632;11.962;2023-04-01T09:29:58;100524.50;;;18.36;34.45
13011;BME280;6786;57.632;11.962;2023-04-01T09:32:48;100442.69;;;17.94;34.25
13011;BME280;6786;57.632;11.962;2023-04-01T09:35:23;100518.91;;;18.39;34.63
13011;BME280;6786;57.632;11.962;2023-04-01T09:37:54;100549.75;;;18.43;34.72
13011;BME280;6786;57.632;11.962;2023-04-01T09:40:40;100540.03;;;18.42;34.52
13011;BME280;6786;57.632;11.962;2023-04-01T09:43:26;100543.69;;;18.41;34.36
13011;BME280;6786;57.632;11.962;2023-04-01T09:46:20;100557.06;;;18.41;34.09
13011;BME280;6786;57.632;11.962;2023-04-01T09:49:17;100545.66;;;18.39;34.35
13011;BME280;6786;57.632;11.962;2023-04-01T09:52:07;100543.00;;;18.39;34.37
13011;BME280;6786;57.632;11.962;2023-04-01T09:55:18;100552.97;;;18.37;34.12
13011;BME280;6786;57.632;11.962;2023-04-01T09:58:11;100552.97;;;18.37;34.32
13011;BME280;6786;57.632;11.962;2023-04-01T10:01:10;100545.91;;;18.36;34.27
13011;BME280;6786;57.632;11.962;2023-04-01T10:07:34;100551.38;;;18.34;34.29
13011;BME280;6786;57.632;11.962;2023-04-01T10:13:53;100548.97;;;18.31;34.03
13011;BME280;6786;57.632;11.962;2023-04-01T10:32:39;100452.16;;;17.68;34.42
13011;BME280;6786;57.632;11.962;2023-04-01T10:35:51;100556.59;;;18.36;34.36
13011;BME280;6786;57.632;11.962;2023-04-01T10:38:55;100560.25;;;18.35;34.29
13011;BME280;6786;57.632;11.962;2023-04-01T10:45:17;100475.09;;;17.80;34.24
13011;BME280;6786;57.632;11.962;2023-04-01T10:48:09;100589.81;;;18.33;34.44
13011;BME280;6786;57.632;11.962;2023-04-01T10:53:55;100587.84;;;18.35;34.38
13011;BME280;6786;57.632;11.962;2023-04-01T10:56:44;100558.22;;;18.18;34.34
13011;BME280;6786;57.632;11.962;2023-04-01T11:15:20;100589.94;;;18.32;34.35
13011;BME280;6786;57.632;11.962;2023-04-01T11:21:31;100593.59;;;18.31;34.22
13011;BME280;6786;57.632;11.962;2023-04-01T11:24:30;100599.69;;;18.33;34.11
13011;BME280;6786;57.632;11.962;2023-04-01T11:27:10;100595.28;;;18.32;34.55
13011;BME280;6786;57.632;11.962;2023-04-01T11:32:43;100591.19;;;18.28;34.49
13011;BME280;6786;57.632;11.962;2023-04-01T11:35:34;100588.97;;;18.33;34.40
13011;BME280;6786;57.632;11.962;2023-04-01T11:38:18;100599.69;;;18.33;34.42
13011;BME280;6786;57.632;11.962;2023-04-01T11:40:54;100430.75;;;17.26;34.57
13011;BME280;6786;57.632;11.962;2023-04-01T11:43:31;100602.34;;;18.33;34.58
13011;BME280;6786;57.632;11.962;2023-04-01T11:46:10;100603.19;;;18.33;34.60
13011;BME280;6786;57.632;11.962;2023-04-01T11:49:02;100611.06;;;18.35;34.13
13011;BME280;6786;57.632;11.962;2023-04-01T11:51:46;100490.34;;;17.58;34.84
13011;BME280;6786;57.632;11.962;2023-04-01T11:54:39;100421.38;;;17.11;34.29
13011;BME280;6786;57.632;11.962;2023-04-01T11:57:22;100613.75;;;18.35;34.52
13011;BME280;6786;57.632;11.962;2023-04-01T12:00:14;100624.44;;;18.35;34.21
13011;BME280;6786;57.632;11.962;2023-04-01T12:03:01;100437.78;;;17.27;34.48
13011;BME280;6786;57.632;11.962;2023-04-01T12:05:47;100626.69;;;18.30;34.56
13011;BME280;6786;57.632;11.962;2023-04-01T12:08:27;100615.72;;;18.33;34.61
13011;BME280;6786;57.632;11.962;2023-04-01T12:11:05;100622.75;;;18.34;34.49
13011;BME280;6786;57.632;11.962;2023-04-01T12:13:41;100621.91;;;18.33;34.64
13011;BME280;6786;57.632;11.962;2023-04-01T12:16:23;100626.31;;;18.34;34.54
13011;BME280;6786;57.632;11.962;2023-04-01T12:18:56;100612.59;;;18.28;34.64
13011;BME280;6786;57.632;11.962;2023-04-01T12:21:32;100625.44;;;18.34;34.41
13011;BME280;6786;57.632;11.962;2023-04-01T12:27:14;100636.28;;;18.32;34.48
13011;BME280;6786;57.632;11.962;2023-04-01T12:30:10;100631.78;;;18.33;34.43
13011;BME280;6786;57.632;11.962;2023-04-01T12:32:47;100642.50;;;18.33;34.60
13011;BME280;6786;57.632;11.962;2023-04-01T12:35:24;100532.31;;;17.68;34.55
13011;BME280;6786;57.632;11.962;2023-04-01T12:38:13;100650.25;;;18.36;34.19
13011;BME280;6786;57.632;11.962;2023-04-01T12:41:13;100652.06;;;18.35;34.23
13011;BME280;6786;57.632;11.962;2023-04-01T12:44:16;100471.06;;;17.23;34.12
13011;BME280;6786;57.632;11.962;2023-04-01T12:47:15;100668.97;;;18.36;34.11
13011;BME280;6786;57.632;11.962;2023-04-01T12:50:06;100668.97;;;18.36;34.17
13011;BME280;6786;57.632;11.962;2023-04-01T12:52:51;100687.72;;;18.36;34.38
13011;BME280;6786;57.632;11.962;2023-04-01T12:55:40;100687.84;;;18.34;33.97
13011;BME280;6786;57.632;11.962;2023-04-01T13:01:27;100600.75;;;17.80;34.15
13011;BME280;6786;57.632;11.962;2023-04-01T13:07:35;100699.38;;;18.35;33.91
13011;BME280;6786;57.632;11.962;2023-04-01T13:10:25;100699.25;;;18.36;34.28
13011;BME280;6786;57.632;11.962;2023-04-01T13:13:37;100694.53;;;18.29;33.96
13011;BME280;6786;57.632;11.962;2023-04-01T13:16:15;100690.91;;;18.30;34.35
13011;BME280;6786;57.632;11.962;2023-04-01T13:18:54;100694.53;;;18.29;34.30
13011;BME280;6786;57.632;11.962;2023-04-01T13:21:37;100701.34;;;18.33;34.40
13011;BME280;6786;57.632;11.962;2023-04-01T13:24:20;100695.63;;;18.17;34.51
13011;BME280;6786;57.632;11.962;2023-04-01T13:26:57;100726.13;;;18.35;34.32
13011;BME280;6786;57.632;11.962;2023-04-01T13:29:35;100710.06;;;18.35;34.33
13011;BME280;6786;57.632;11.962;2023-04-01T13:32:22;100717.41;;;18.33;34.04
13011;BME280;6786;57.632;11.962;2023-04-01T13:35:26;100721.63;;;18.35;34.14
13011;BME280;6786;57.632;11.962;2023-04-01T13:38:32;100693.63;;;18.19;34.02
13011;BME280;6786;57.632;11.962;2023-04-01T13:41:11;100710.06;;;18.35;34.37
13011;BME280;6786;57.632;11.962;2023-04-01T13:43:49;100712.75;;;18.35;34.40
13011;BME280;6786;57.632;11.962;2023-04-01T13:46:38;100735.00;;;18.35;33.92
13011;BME280;6786;57.632;11.962;2023-04-01T13:49:23;100725.56;;;18.31;34.17
13011;BME280;6786;57.632;11.962;2023-04-01T13:52:43;100732.09;;;18.38;33.76
13011;BME280;6786;57.632;11.962;2023-04-01T13:58:38;100668.44;;;18.01;34.16
13011;BME280;6786;57.632;11.962;2023-04-01T14:01:13;100697.31;;;18.18;34.45
13011;BME280;6786;57.632;11.962;2023-04-01T14:04:13;100732.97;;;18.39;33.88
13011;BME280;6786;57.632;11.962;2023-04-01T14:06:54;100734.91;;;18.37;34.12
13011;BME280;6786;57.632;11.962;2023-04-01T14:09:48;100743.91;;;18.36;33.94
13011;BME280;6786;57.632;11.962;2023-04-01T14:12:30;100751.19;;;18.34;34.14
13011;BME280;6786;57.632;11.962;2023-04-01T14:15:19;100744.16;;;18.33;34.11
13011;BME280;6786;57.632;11.962;2023-04-01T14:18:08;100747.78;;;18.32;34.07
13011;BME280;6786;57.632;11.962;2023-04-01T14:20:46;100744.97;;;18.33;34.25
13011;BME280;6786;57.632;11.962;2023-04-01T14:23:42;100760.22;;;18.33;33.89
13011;BME280;6786;57.632;11.962;2023-04-01T14:26:42;100757.31;;;18.25;33.93
13011;BME280;6786;57.632;11.962;2023-04-01T14:29:21;100765.56;;;18.33;34.15
13011;BME280;6786;57.632;11.962;2023-04-01T14:31:59;100776.25;;;18.33;34.11
13011;BME280;6786;57.632;11.962;2023-04-01T14:34:44;100764.34;;;18.26;34.15
13011;BME280;6786;57.632;11.962;2023-04-01T14:37:43;100738.06;;;18.10;33.86
13011;BME280;6786;57.632;11.962;2023-04-01T14:40:27;100691.63;;;17.80;33.76
13011;BME280;6786;57.632;11.962;2023-04-01T14:43:07;100789.50;;;18.34;34.08
13011;BME280;6786;57.632;11.962;2023-04-01T14:46:04;100761.50;;;18.18;33.70
13011;BME280;6786;57.632;11.962;2023-04-01T14:48:37;100785.50;;;18.29;34.32
13011;BME280;6786;57.632;11.962;2023-04-01T14:51:15;100663.06;;;17.59;34.08
13011;BME280;6786;57.632;11.962;2023-04-01T14:53:56;100799.13;;;18.37;34.00
13011;BME280;6786;57.632;11.962;2023-04-01T14:56:41;100741.38;;;18.03;33.99
13011;BME280;6786;57.632;11.962;2023-04-01T14:59:15;100803.50;;;18.38;34.23
13011;BME280;6786;57.632;11.962;2023-04-01T15:01:55;100802.53;;;18.39;34.12
13011;BME280;6786;57.632;11.962;2023-04-01T15:04:46;100813.25;;;18.39;33.92